createdAt,value
2023-01-19T00:01:19.268Z,8.90
2023-01-19T00:03:45.748Z,8.90
2023-01-19T00:06:12.283Z,8.80
2023-01-19T00:08:38.812Z,9.00
2023-01-19T00:11:05.257Z,8.90
2023-01-19T00:13:31.733Z,9.00
2023-01-19T00:15:58.242Z,9.00
2023-01-19T00:18:24.733Z,8.90
2023-01-19T00:20:51.198Z,8.90
2023-01-19T00:23:17.714Z,8.90
2023-01-19T00:25:44.212Z,8.90
2023-01-19T00:28:10.739Z,9.00
2023-01-19T00:30:37.217Z,9.00
2023-01-19T00:33:04.083Z,9.00
2023-01-19T00:35:30.725Z,8.90
2023-01-19T00:37:57.209Z,8.80
2023-01-19T00:40:23.788Z,8.70
2023-01-19T00:42:50.263Z,8.80
2023-01-19T00:45:16.739Z,8.70
2023-01-19T00:47:43.247Z,8.70
2023-01-19T00:50:09.729Z,8.80
2023-01-19T00:52:36.199Z,8.80
2023-01-19T00:55:02.664Z,8.80
2023-01-19T00:57:29.162Z,8.70
2023-01-19T00:59:55.636Z,8.80
2023-01-19T01:02:22.320Z,8.70
2023-01-19T01:04:48.986Z,8.80
2023-01-19T01:07:15.453Z,8.70
2023-01-19T01:09:41.925Z,8.70
2023-01-19T01:12:08.432Z,8.80
2023-01-19T01:14:34.901Z,8.80
2023-01-19T01:17:01.373Z,8.90
2023-01-19T01:19:27.847Z,8.80
2023-01-19T01:21:54.319Z,8.70
2023-01-19T01:24:21.706Z,8.70
2023-01-19T01:26:48.184Z,8.70
2023-01-19T01:29:14.652Z,8.80
2023-01-19T01:31:41.184Z,8.70
2023-01-19T01:34:07.681Z,8.60
2023-01-19T01:36:34.160Z,8.70
2023-01-19T01:39:00.659Z,8.60
2023-01-19T01:41:27.127Z,8.60
2023-01-19T01:43:53.704Z,8.60
2023-01-19T01:46:20.281Z,8.50
2023-01-19T01:48:46.758Z,8.60
2023-01-19T01:51:13.232Z,8.60
2023-01-19T01:53:39.704Z,8.80
2023-01-19T01:56:06.165Z,8.90
2023-01-19T01:58:32.652Z,8.80
2023-01-19T02:00:59.248Z,8.60
2023-01-19T02:03:25.847Z,8.80
2023-01-19T02:05:52.390Z,8.80
2023-01-19T02:08:18.882Z,8.90
2023-01-19T02:10:45.366Z,8.80
2023-01-19T02:13:11.845Z,8.90
2023-01-19T02:15:38.324Z,8.80
2023-01-19T02:18:04.809Z,8.70
2023-01-19T02:20:31.288Z,8.70
2023-01-19T02:22:58.116Z,8.50
2023-01-19T02:25:24.954Z,8.60
2023-01-19T02:27:51.448Z,8.70
2023-01-19T02:30:17.942Z,8.70
2023-01-19T02:32:44.384Z,8.60
2023-01-19T02:35:10.873Z,8.60
2023-01-19T02:37:41.697Z,8.60
2023-01-19T02:40:08.191Z,8.60
2023-01-19T02:42:34.698Z,8.70
2023-01-19T02:45:01.171Z,8.70
2023-01-19T02:47:27.652Z,8.80
2023-01-19T02:49:54.190Z,8.70
2023-01-19T02:52:21.955Z,8.70
2023-01-19T02:54:48.485Z,8.80
2023-01-19T02:57:14.954Z,8.90
2023-01-19T02:59:41.431Z,8.80
2023-01-19T03:02:08.094Z,8.80
2023-01-19T03:04:34.712Z,8.90
2023-01-19T03:07:01.191Z,8.80
2023-01-19T03:09:27.649Z,8.70
2023-01-19T03:11:54.133Z,8.60
2023-01-19T03:14:20.617Z,8.80
2023-01-19T03:16:47.148Z,8.70
2023-01-19T03:19:13.685Z,8.70
2023-01-19T03:21:40.151Z,8.80
2023-01-19T03:24:06.616Z,8.70
2023-01-19T03:26:33.104Z,8.70
2023-01-19T03:28:59.561Z,8.70
2023-01-19T03:31:26.040Z,8.70
2023-01-19T03:33:52.522Z,8.50
2023-01-19T03:36:19.008Z,8.60
2023-01-19T03:38:45.490Z,8.60
2023-01-19T03:41:11.975Z,8.70
2023-01-19T03:43:38.441Z,8.70
2023-01-19T03:46:05.004Z,8.60
2023-01-19T03:48:31.526Z,8.60
2023-01-19T03:50:58.019Z,8.70
2023-01-19T03:53:24.491Z,8.60
2023-01-19T03:55:50.984Z,8.60
2023-01-19T03:58:17.450Z,8.70
2023-01-19T04:00:43.959Z,8.70
2023-01-19T04:03:10.438Z,8.70
2023-01-19T04:05:36.982Z,8.70
2023-01-19T04:08:03.475Z,8.60
2023-01-19T04:10:29.951Z,8.60
2023-01-19T04:12:56.450Z,8.70
2023-01-19T04:15:22.925Z,8.60
2023-01-19T04:17:49.567Z,8.50
2023-01-19T04:20:16.043Z,8.60
2023-01-19T04:22:47.757Z,8.60
2023-01-19T04:25:14.240Z,8.60
2023-01-19T04:27:40.720Z,8.60
2023-01-19T04:30:07.263Z,8.50
2023-01-19T04:32:33.742Z,8.40
2023-01-19T04:35:00.236Z,8.40
2023-01-19T04:37:26.716Z,8.60
2023-01-19T04:39:53.193Z,8.60
2023-01-19T04:42:19.662Z,8.60
2023-01-19T04:44:46.143Z,8.50
2023-01-19T04:47:12.632Z,8.60
2023-01-19T04:49:39.106Z,8.70
2023-01-19T04:52:05.596Z,8.60
2023-01-19T04:54:32.134Z,8.60
2023-01-19T04:56:58.660Z,8.50
2023-01-19T04:59:25.156Z,8.50
2023-01-19T05:01:51.674Z,8.40
2023-01-19T05:04:18.154Z,8.50
2023-01-19T05:06:44.913Z,8.50
2023-01-19T05:09:11.393Z,8.50
2023-01-19T05:11:37.896Z,8.50
2023-01-19T05:14:04.388Z,8.40
2023-01-19T05:16:30.884Z,8.40
2023-01-19T05:18:57.358Z,8.50
2023-01-19T05:21:23.847Z,8.40
2023-01-19T05:23:50.345Z,8.60
2023-01-19T05:26:16.833Z,8.60
2023-01-19T05:28:43.326Z,8.70
2023-01-19T05:31:09.917Z,8.60
2023-01-19T05:33:36.485Z,8.60
2023-01-19T05:36:02.966Z,8.60
2023-01-19T05:38:34.869Z,8.60
2023-01-19T05:41:01.681Z,8.70
2023-01-19T05:43:28.378Z,8.70
2023-01-19T05:45:54.982Z,8.70
2023-01-19T05:48:21.480Z,8.70
2023-01-19T05:50:47.961Z,8.70
2023-01-19T05:53:14.434Z,8.60
2023-01-19T05:55:40.935Z,8.60
2023-01-19T05:58:07.426Z,8.60
2023-01-19T06:00:33.906Z,8.50
2023-01-19T06:03:00.692Z,8.60
2023-01-19T06:05:27.389Z,8.60
2023-01-19T06:07:53.867Z,8.50
2023-01-19T06:10:20.331Z,8.50
2023-01-19T06:12:46.792Z,8.50
2023-01-19T06:15:13.340Z,8.70
2023-01-19T06:17:39.840Z,8.60
2023-01-19T06:20:06.309Z,8.50
2023-01-19T06:22:32.795Z,8.60
2023-01-19T06:24:59.283Z,8.70
2023-01-19T06:27:25.769Z,8.70
2023-01-19T06:29:52.241Z,8.70
2023-01-19T06:32:18.732Z,8.70
2023-01-19T06:34:45.213Z,8.60
2023-01-19T06:37:11.711Z,8.70
2023-01-19T06:39:38.181Z,8.60
2023-01-19T06:42:04.686Z,8.60
2023-01-19T06:44:31.222Z,8.60
2023-01-19T06:47:14.866Z,8.60
2023-01-19T06:49:42.597Z,8.60
2023-01-19T06:52:09.088Z,8.70
2023-01-19T06:54:35.561Z,8.70
2023-01-19T06:57:02.804Z,8.70
2023-01-19T06:59:29.341Z,8.70
2023-01-19T07:01:55.995Z,8.60
2023-01-19T07:04:22.580Z,8.60
2023-01-19T07:06:49.059Z,8.70
2023-01-19T07:09:16.895Z,8.60
2023-01-19T07:11:43.467Z,8.70
2023-01-19T07:14:09.943Z,8.70
2023-01-19T07:16:36.441Z,8.70
2023-01-19T07:19:02.927Z,8.70
2023-01-19T07:21:29.546Z,8.70
2023-01-19T07:23:56.049Z,8.80
2023-01-19T07:26:22.531Z,8.70
2023-01-19T07:28:49.025Z,8.50
2023-01-19T07:31:15.648Z,8.50
2023-01-19T07:33:42.282Z,8.70
2023-01-19T07:36:08.773Z,8.60
2023-01-19T07:38:35.256Z,8.70
2023-01-19T07:41:01.748Z,8.50
2023-01-19T07:43:28.231Z,8.70
2023-01-19T07:45:54.778Z,8.70
2023-01-19T07:48:21.257Z,8.70
2023-01-19T07:50:47.717Z,8.80
2023-01-19T07:53:14.207Z,8.60
2023-01-19T07:55:40.804Z,8.60
2023-01-19T07:58:07.358Z,8.60
2023-01-19T08:00:33.907Z,8.70
2023-01-19T08:03:00.761Z,8.60
2023-01-19T08:05:27.548Z,8.60
2023-01-19T08:07:54.275Z,8.50
2023-01-19T08:10:20.791Z,8.60
2023-01-19T08:12:47.280Z,8.70
2023-01-19T08:15:13.767Z,8.60
2023-01-19T08:17:40.241Z,8.60
2023-01-19T08:20:06.762Z,8.60
2023-01-19T08:22:33.254Z,8.50
2023-01-19T08:24:59.751Z,8.50
2023-01-19T08:27:26.244Z,8.50
2023-01-19T08:29:52.741Z,8.50
2023-01-19T08:32:19.356Z,8.50
2023-01-19T08:34:45.898Z,8.50
2023-01-19T08:37:12.395Z,8.40
2023-01-19T08:39:38.902Z,8.50
2023-01-19T08:42:05.383Z,8.50
2023-01-19T08:44:31.840Z,8.60
2023-01-19T08:46:58.335Z,8.50
2023-01-19T08:49:24.820Z,8.60
2023-01-19T08:51:51.333Z,8.60
2023-01-19T08:54:18.775Z,8.50
2023-01-19T08:56:45.323Z,8.60
2023-01-19T08:59:13.099Z,8.60
2023-01-19T09:01:40.737Z,8.50
2023-01-19T09:04:07.286Z,8.50
2023-01-19T09:06:33.789Z,8.40
2023-01-19T09:09:00.411Z,8.30
2023-01-19T09:11:26.893Z,8.30
2023-01-19T09:13:53.356Z,8.50
2023-01-19T09:16:19.869Z,8.50
2023-01-19T09:18:46.360Z,8.50
2023-01-19T09:21:12.855Z,8.50
2023-01-19T09:23:39.340Z,8.50
2023-01-19T09:26:05.829Z,8.60
2023-01-19T09:28:32.502Z,8.50
2023-01-19T09:30:59.100Z,8.40
2023-01-19T09:33:25.634Z,8.50
2023-01-19T09:35:52.136Z,8.50
2023-01-19T09:38:18.638Z,8.40
2023-01-19T09:40:45.124Z,8.50
2023-01-19T09:43:11.644Z,8.40
2023-01-19T09:45:38.122Z,8.60
2023-01-19T09:48:04.677Z,8.60
2023-01-19T09:50:31.159Z,8.70
2023-01-19T09:52:57.612Z,8.60
2023-01-19T09:55:24.116Z,8.50
2023-01-19T09:57:50.588Z,8.40
2023-01-19T10:00:17.089Z,8.30
2023-01-19T10:02:43.631Z,8.40
2023-01-19T10:05:10.128Z,8.50
2023-01-19T10:07:36.617Z,8.50
2023-01-19T10:10:03.113Z,8.70
2023-01-19T10:12:29.583Z,8.60
2023-01-19T10:14:56.158Z,8.50
2023-01-19T10:17:22.801Z,8.50
2023-01-19T10:19:49.272Z,8.50
2023-01-19T10:22:15.763Z,8.60
2023-01-19T10:24:42.254Z,8.60
2023-01-19T10:27:08.734Z,8.60
2023-01-19T10:29:35.244Z,8.60
2023-01-19T10:32:01.785Z,8.50
2023-01-19T10:34:28.296Z,8.40
2023-01-19T10:36:54.850Z,8.40
2023-01-19T10:39:21.315Z,8.50
2023-01-19T10:41:48.007Z,8.50
2023-01-19T10:44:14.559Z,8.40
2023-01-19T10:46:41.053Z,8.50
2023-01-19T10:49:07.603Z,8.50
2023-01-19T10:51:34.108Z,8.40
2023-01-19T10:54:00.618Z,8.50
2023-01-19T10:56:27.103Z,8.30
2023-01-19T11:01:37.900Z,8.40
2023-01-19T11:04:04.643Z,8.50
2023-01-19T11:06:31.125Z,8.60
2023-01-19T11:08:57.614Z,8.50
2023-01-19T11:11:24.095Z,8.50
2023-01-19T11:13:50.555Z,8.40
2023-01-19T11:16:17.048Z,8.60
2023-01-19T11:18:43.538Z,8.60
2023-01-19T11:21:10.015Z,8.60
2023-01-19T11:23:36.500Z,8.60
2023-01-19T11:26:02.970Z,8.80
2023-01-19T11:28:29.452Z,8.60
2023-01-19T11:33:45.878Z,8.60
2023-01-19T11:36:12.369Z,8.70
2023-01-19T11:38:38.842Z,8.70
2023-01-19T11:41:05.315Z,8.60
2023-01-19T11:43:47.525Z,8.60
2023-01-19T11:46:14.637Z,8.70
2023-01-19T11:48:41.104Z,8.60
2023-01-19T11:51:07.642Z,8.60
2023-01-19T11:53:34.135Z,8.70
2023-01-19T11:56:00.636Z,8.80
2023-01-19T11:58:27.130Z,8.80
2023-01-19T12:03:44.309Z,8.70
2023-01-19T12:06:10.896Z,8.80
2023-01-19T12:08:37.387Z,8.70
2023-01-19T12:11:04.181Z,8.70
2023-01-19T12:13:30.661Z,8.60
2023-01-19T12:15:57.164Z,8.70
2023-01-19T12:18:23.644Z,8.70
2023-01-19T12:20:50.131Z,8.90
2023-01-19T12:23:16.617Z,8.80
2023-01-19T12:25:43.135Z,8.80
2023-01-19T12:28:09.631Z,8.70
2023-01-19T12:30:36.234Z,8.70
2023-01-19T12:33:02.785Z,8.70
2023-01-19T12:35:29.295Z,8.70
2023-01-19T12:37:55.778Z,8.80
2023-01-19T12:40:22.232Z,8.70
2023-01-19T12:42:54.150Z,8.70
2023-01-19T12:45:20.626Z,8.80
2023-01-19T12:47:56.382Z,8.80
2023-01-19T12:50:22.866Z,8.80
2023-01-19T12:52:49.368Z,8.80
2023-01-19T12:55:15.854Z,8.80
2023-01-19T12:57:42.345Z,8.90
2023-01-19T13:00:08.813Z,8.90
2023-01-19T13:02:35.324Z,8.80
2023-01-19T13:05:01.837Z,8.90
2023-01-19T13:07:28.320Z,8.90
2023-01-19T13:09:54.790Z,8.90
2023-01-19T13:12:21.268Z,8.90
2023-01-19T13:14:47.775Z,8.80
2023-01-19T13:17:14.261Z,8.80
2023-01-19T13:19:40.743Z,8.90
2023-01-19T13:22:07.271Z,8.80
2023-01-19T13:24:33.760Z,8.80
2023-01-19T13:27:00.259Z,8.70
2023-01-19T13:29:26.733Z,8.80
2023-01-19T13:31:53.221Z,8.80
2023-01-19T13:34:19.722Z,8.80
2023-01-19T13:36:46.218Z,8.80
2023-01-19T13:39:12.689Z,8.90
2023-01-19T13:41:39.168Z,9.00
2023-01-19T13:44:05.658Z,9.00
2023-01-19T13:46:32.231Z,9.10
2023-01-19T13:48:58.774Z,9.00
2023-01-19T13:51:25.272Z,8.80
2023-01-19T13:53:51.810Z,8.80
2023-01-19T13:56:18.299Z,8.90
2023-01-19T13:58:48.221Z,8.90
2023-01-19T14:01:14.785Z,8.90
2023-01-19T14:03:41.304Z,8.90
2023-01-19T14:06:07.942Z,8.90
2023-01-19T14:08:34.450Z,8.90
2023-01-19T14:11:00.939Z,8.80
2023-01-19T14:13:27.419Z,8.80
2023-01-19T14:15:56.947Z,8.70
2023-01-19T14:18:23.533Z,8.70
2023-01-19T14:20:50.004Z,8.80
2023-01-19T14:23:16.532Z,8.80
2023-01-19T14:25:43.022Z,8.90
2023-01-19T14:28:09.505Z,8.90
2023-01-19T14:30:36.029Z,8.90
2023-01-19T14:33:02.526Z,8.80
2023-01-19T14:35:29.004Z,9.00
2023-01-19T14:37:55.484Z,9.00
2023-01-19T14:40:21.960Z,8.90
2023-01-19T14:42:48.428Z,8.90
2023-01-19T14:45:15.171Z,8.70
2023-01-19T14:47:41.653Z,8.70
2023-01-19T14:50:08.309Z,8.70
2023-01-19T14:52:34.890Z,8.90
2023-01-19T14:55:01.420Z,8.90
2023-01-19T14:57:27.909Z,8.80
2023-01-19T15:00:00.291Z,8.90
2023-01-19T15:02:26.864Z,8.80
2023-01-19T15:04:53.428Z,9.00
2023-01-19T15:07:19.912Z,8.90
2023-01-19T15:09:46.415Z,8.80
2023-01-19T15:12:12.888Z,8.70
2023-01-19T15:14:39.400Z,8.80
2023-01-19T15:17:05.886Z,9.00
2023-01-19T15:19:32.374Z,8.90
2023-01-19T15:21:58.866Z,8.90
2023-01-19T15:24:25.366Z,9.00
2023-01-19T15:26:51.841Z,8.90
2023-01-19T15:29:18.385Z,8.80
2023-01-19T15:31:44.891Z,8.90
2023-01-19T15:34:11.394Z,8.90
2023-01-19T15:36:42.323Z,8.90
2023-01-19T15:39:12.315Z,8.90
2023-01-19T15:41:38.872Z,8.80
2023-01-19T15:44:05.368Z,8.80
2023-01-19T15:46:31.832Z,8.90
2023-01-19T15:48:58.305Z,8.80
2023-01-19T15:51:24.795Z,8.90
2023-01-19T15:53:51.300Z,9.10
2023-01-19T15:56:17.812Z,9.10
2023-01-19T15:58:44.284Z,9.00
2023-01-19T16:01:10.861Z,9.10
2023-01-19T16:03:37.381Z,9.00
2023-01-19T16:06:06.311Z,9.10
2023-01-19T16:08:32.781Z,9.00
2023-01-19T16:10:59.276Z,8.90
2023-01-19T16:13:25.754Z,9.10
2023-01-19T16:15:52.278Z,9.10
2023-01-19T16:18:18.793Z,9.10
2023-01-19T16:20:45.305Z,9.00
2023-01-19T16:23:15.646Z,8.90
2023-01-19T16:25:42.444Z,9.00
2023-01-19T16:28:08.920Z,8.90
2023-01-19T16:30:35.458Z,8.80
2023-01-19T16:33:01.955Z,8.80
2023-01-19T16:35:28.467Z,8.80
2023-01-19T16:37:54.951Z,9.00
2023-01-19T16:40:21.477Z,8.90
2023-01-19T16:42:47.938Z,8.80
2023-01-19T16:45:14.414Z,8.70
2023-01-19T16:47:40.889Z,8.70
2023-01-19T16:50:07.377Z,8.70
2023-01-19T16:52:33.861Z,8.70
2023-01-19T16:55:00.346Z,8.70
2023-01-19T16:57:26.813Z,8.70
2023-01-19T16:59:53.288Z,8.80
2023-01-19T17:02:19.712Z,8.70
2023-01-19T17:04:46.205Z,8.60
2023-01-19T17:07:12.693Z,8.60
2023-01-19T17:09:39.171Z,8.60
2023-01-19T17:12:05.676Z,8.70
2023-01-19T17:14:32.169Z,8.50
2023-01-19T17:16:59.770Z,8.50
2023-01-19T17:19:28.615Z,8.50
2023-01-19T17:21:55.104Z,8.60
2023-01-19T17:24:21.596Z,8.40
2023-01-19T17:26:48.130Z,8.50
2023-01-19T17:29:14.610Z,8.60
2023-01-19T17:31:41.174Z,8.60
2023-01-19T17:34:07.691Z,8.70
2023-01-19T17:36:34.192Z,8.70
2023-01-19T17:39:00.672Z,8.80
2023-01-19T17:41:27.138Z,8.70
2023-01-19T17:43:53.605Z,8.80
2023-01-19T17:46:20.142Z,8.90
2023-01-19T17:51:37.330Z,8.90
2023-01-19T17:54:03.807Z,8.90
2023-01-19T17:56:30.391Z,8.90
2023-01-19T17:58:56.930Z,9.00
2023-01-19T18:01:23.499Z,8.90
2023-01-19T18:03:50.005Z,9.00
2023-01-19T18:06:16.494Z,8.80
2023-01-19T18:08:42.976Z,8.90
2023-01-19T18:11:09.466Z,8.80
2023-01-19T18:13:35.950Z,8.90
2023-01-19T18:16:02.503Z,8.90
2023-01-19T18:18:29.001Z,8.80
2023-01-19T18:20:55.495Z,8.90
2023-01-19T18:23:22.008Z,9.00
2023-01-19T18:25:48.510Z,9.10
2023-01-19T18:28:15.035Z,9.00
2023-01-19T18:30:41.645Z,9.00
2023-01-19T18:33:08.227Z,8.80
2023-01-19T18:35:34.729Z,8.70
2023-01-19T18:38:01.245Z,8.80
2023-01-19T18:40:27.804Z,8.90
2023-01-19T18:42:54.295Z,8.80
2023-01-19T18:45:20.785Z,8.80
2023-01-19T18:47:47.252Z,8.90
2023-01-19T18:50:18.464Z,9.10
2023-01-19T18:52:44.941Z,9.10
2023-01-19T18:55:11.440Z,9.10
2023-01-19T18:57:42.787Z,9.20
2023-01-19T19:00:09.264Z,9.00
2023-01-19T19:02:35.757Z,9.00
2023-01-19T19:05:02.280Z,9.00
2023-01-19T19:07:28.733Z,9.00
2023-01-19T19:09:55.278Z,9.00
2023-01-19T19:12:21.757Z,9.10
2023-01-19T19:14:48.265Z,9.00
2023-01-19T19:17:14.741Z,8.90
2023-01-19T19:19:41.241Z,9.00
2023-01-19T19:22:07.774Z,9.10
2023-01-19T19:24:34.285Z,9.00
2023-01-19T19:27:00.764Z,8.90
2023-01-19T19:29:27.254Z,8.90
2023-01-19T19:31:53.724Z,8.90
2023-01-19T19:34:20.189Z,8.80
2023-01-19T19:36:46.661Z,8.80
2023-01-19T19:39:13.144Z,8.80
2023-01-19T19:41:39.629Z,8.80
2023-01-19T19:44:06.100Z,8.90
2023-01-19T19:46:32.657Z,8.80
2023-01-19T19:48:59.151Z,8.90
2023-01-19T19:51:25.729Z,8.80
2023-01-19T19:53:52.238Z,8.80
2023-01-19T19:56:18.717Z,8.80
2023-01-19T19:58:45.175Z,8.70
2023-01-19T20:01:11.785Z,8.70
2023-01-19T20:03:38.368Z,8.80
2023-01-19T20:06:04.849Z,8.80
2023-01-19T20:08:31.332Z,8.90
2023-01-19T20:10:57.817Z,9.10
2023-01-19T20:13:24.308Z,9.00
2023-01-19T20:15:50.815Z,8.90
2023-01-19T20:18:17.350Z,8.90
2023-01-19T20:20:43.870Z,9.00
2023-01-19T20:23:10.337Z,9.00
2023-01-19T20:25:36.854Z,8.90
2023-01-19T20:28:03.337Z,9.00
2023-01-19T20:30:29.887Z,9.00
2023-01-19T20:32:56.384Z,8.80
2023-01-19T20:35:22.864Z,8.90
2023-01-19T20:37:49.321Z,8.90
2023-01-19T20:40:15.807Z,9.00
2023-01-19T20:42:42.284Z,8.90
2023-01-19T20:45:08.741Z,9.00
2023-01-19T20:47:35.226Z,8.90
2023-01-19T20:50:01.711Z,9.00
2023-01-19T20:52:28.227Z,8.90
2023-01-19T20:54:54.723Z,8.90
2023-01-19T20:57:21.217Z,8.80
2023-01-19T20:59:47.678Z,8.80
2023-01-19T21:02:14.220Z,8.90
2023-01-19T21:04:40.747Z,8.90
2023-01-19T21:07:07.230Z,8.80
2023-01-19T21:09:33.705Z,8.80
2023-01-19T21:12:00.186Z,8.90
2023-01-19T21:14:26.693Z,8.90
2023-01-19T21:16:53.186Z,9.00
2023-01-19T21:19:19.670Z,9.00
2023-01-19T21:21:46.189Z,8.90
2023-01-19T21:24:12.675Z,8.80
2023-01-19T21:26:39.168Z,8.90
2023-01-19T21:29:05.639Z,9.00
2023-01-19T21:31:32.192Z,8.90
2023-01-19T21:33:58.726Z,8.80
2023-01-19T21:36:25.257Z,8.90
2023-01-19T21:38:51.744Z,9.00
2023-01-19T21:41:18.459Z,8.80
2023-01-19T21:43:45.139Z,8.90
2023-01-19T21:46:11.644Z,8.80
2023-01-19T21:48:42.767Z,9.00
2023-01-19T21:51:09.239Z,8.90
2023-01-19T21:53:35.713Z,9.00
2023-01-19T21:56:02.187Z,8.90
2023-01-19T21:58:28.666Z,8.80
2023-01-19T22:00:55.249Z,8.70
2023-01-19T22:03:21.829Z,8.70
2023-01-19T22:05:48.408Z,8.90
2023-01-19T22:08:14.899Z,8.90
2023-01-19T22:10:41.351Z,8.90
2023-01-19T22:13:07.807Z,8.80
2023-01-19T22:15:34.285Z,8.80
2023-01-19T22:18:00.768Z,8.90
2023-01-19T22:20:27.242Z,8.90
2023-01-19T22:22:53.795Z,8.70
2023-01-19T22:25:20.285Z,8.90
2023-01-19T22:27:46.804Z,8.90
2023-01-19T22:30:13.290Z,8.90
2023-01-19T22:32:39.822Z,8.80
2023-01-19T22:35:06.309Z,8.80
2023-01-19T22:37:32.797Z,8.80
2023-01-19T22:40:00.600Z,8.80
2023-01-19T22:42:27.062Z,8.80
2023-01-19T22:44:53.547Z,8.70
2023-01-19T22:47:20.062Z,8.60
2023-01-19T22:49:46.554Z,8.70
2023-01-19T22:52:13.078Z,8.60
2023-01-19T22:54:39.555Z,8.60
2023-01-19T22:57:06.052Z,8.50
2023-01-19T22:59:32.536Z,8.60
2023-01-19T23:01:59.171Z,8.70
2023-01-19T23:04:25.704Z,8.70
2023-01-19T23:06:52.167Z,8.90
2023-01-19T23:09:18.648Z,8.70
2023-01-19T23:11:45.137Z,8.80
2023-01-19T23:14:11.639Z,8.70
2023-01-19T23:16:38.105Z,8.90
2023-01-19T23:19:04.566Z,8.90
2023-01-19T23:21:31.043Z,8.90
2023-01-19T23:23:57.530Z,8.80
2023-01-19T23:26:24.025Z,8.80
2023-01-19T23:28:50.533Z,8.80
2023-01-19T23:31:17.043Z,8.80
2023-01-19T23:33:43.560Z,8.70
2023-01-19T23:36:10.047Z,8.50
2023-01-19T23:38:36.521Z,8.60
2023-01-19T23:41:02.980Z,8.60
2023-01-19T23:43:29.461Z,8.50
2023-01-19T23:45:56.010Z,8.60
2023-01-19T23:48:22.574Z,8.70
2023-01-19T23:50:49.060Z,8.80
2023-01-19T23:53:15.579Z,8.60
2023-01-19T23:55:42.074Z,8.70
2023-01-19T23:58:08.568Z,8.80
